sensor_id;sensor_type;location;lat;lon;timestamp;P1;durP1;ratioP1;P2;durP2;ratioP2
7503;SDS011;3793;48.136;11.536;2022-11-15T00:00:25;7.53;;;6.10;;
7503;SDS011;3793;48.136;11.536;2022-11-15T00:02:52;6.80;;;5.00;;
7503;SDS011;3793;48.136;11.536;2022-11-15T00:05:19;5.67;;;4.57;;
7503;SDS011;3793;48.136;11.536;2022-11-15T00:07:45;5.93;;;4.63;;
7503;SDS011;3793;48.136;11.536;2022-11-15T00:10:12;5.73;;;5.10;;
7503;SDS011;3793;48.136;11.536;2022-11-15T00:12:40;5.40;;;4.40;;
7503;SDS011;3793;48.136;11.536;2022-11-15T00:15:07;5.77;;;4.63;;
7503;SDS011;3793;48.136;11.536;2022-11-15T00:17:34;5.70;;;4.40;;
7503;SDS011;3793;48.136;11.536;2022-11-15T00:20:00;4.40;;;3.77;;
7503;SDS011;3793;48.136;11.536;2022-11-15T00:22:30;5.87;;;3.93;;
7503;SDS011;3793;48.136;11.536;2022-11-15T00:24:57;5.03;;;4.23;;
7503;SDS011;3793;48.136;11.536;2022-11-15T00:27:24;6.23;;;4.03;;
7503;SDS011;3793;48.136;11.536;2022-11-15T00:29:52;5.60;;;4.13;;
7503;SDS011;3793;48.136;11.536;2022-11-15T00:32:18;6.13;;;4.33;;
7503;SDS011;3793;48.136;11.536;2022-11-15T00:34:45;6.63;;;4.10;;
7503;SDS011;3793;48.136;11.536;2022-11-15T00:37:11;5.07;;;4.37;;
7503;SDS011;3793;48.136;11.536;2022-11-15T00:39:38;8.07;;;3.87;;
7503;SDS011;3793;48.136;11.536;2022-11-15T00:42:04;5.53;;;3.97;;
7503;SDS011;3793;48.136;11.536;2022-11-15T00:44:31;6.30;;;3.97;;
7503;SDS011;3793;48.136;11.536;2022-11-15T00:46:59;6.27;;;4.00;;
7503;SDS011;3793;48.136;11.536;2022-11-15T00:49:25;5.80;;;3.60;;
7503;SDS011;3793;48.136;11.536;2022-11-15T00:51:52;4.93;;;4.00;;
7503;SDS011;3793;48.136;11.536;2022-11-15T00:54:19;5.57;;;3.70;;
7503;SDS011;3793;48.136;11.536;2022-11-15T00:56:45;5.97;;;3.63;;
7503;SDS011;3793;48.136;11.536;2022-11-15T00:59:12;5.27;;;3.67;;
7503;SDS011;3793;48.136;11.536;2022-11-15T01:01:38;5.37;;;3.90;;
7503;SDS011;3793;48.136;11.536;2022-11-15T01:04:06;5.30;;;3.80;;
7503;SDS011;3793;48.136;11.536;2022-11-15T01:06:33;6.67;;;4.33;;
7503;SDS011;3793;48.136;11.536;2022-11-15T01:09:00;4.83;;;3.57;;
7503;SDS011;3793;48.136;11.536;2022-11-15T01:11:26;5.93;;;3.67;;
7503;SDS011;3793;48.136;11.536;2022-11-15T01:13:53;6.63;;;3.97;;
7503;SDS011;3793;48.136;11.536;2022-11-15T01:16:22;4.30;;;3.50;;
7503;SDS011;3793;48.136;11.536;2022-11-15T01:18:48;5.83;;;3.80;;
7503;SDS011;3793;48.136;11.536;2022-11-15T01:21:17;8.00;;;3.60;;
7503;SDS011;3793;48.136;11.536;2022-11-15T01:23:44;8.43;;;4.27;;
7503;SDS011;3793;48.136;11.536;2022-11-15T01:26:12;5.67;;;3.50;;
7503;SDS011;3793;48.136;11.536;2022-11-15T01:28:40;4.77;;;3.50;;
7503;SDS011;3793;48.136;11.536;2022-11-15T01:31:09;5.70;;;3.77;;
7503;SDS011;3793;48.136;11.536;2022-11-15T01:33:37;5.73;;;3.90;;
7503;SDS011;3793;48.136;11.536;2022-11-15T01:36:04;5.30;;;3.83;;
7503;SDS011;3793;48.136;11.536;2022-11-15T01:38:32;3.80;;;3.40;;
7503;SDS011;3793;48.136;11.536;2022-11-15T01:40:59;4.13;;;3.50;;
7503;SDS011;3793;48.136;11.536;2022-11-15T01:43:27;5.43;;;3.40;;
7503;SDS011;3793;48.136;11.536;2022-11-15T01:45:54;3.67;;;3.27;;
7503;SDS011;3793;48.136;11.536;2022-11-15T01:48:23;5.63;;;3.70;;
7503;SDS011;3793;48.136;11.536;2022-11-15T01:50:52;3.67;;;3.00;;
7503;SDS011;3793;48.136;11.536;2022-11-15T01:53:19;4.03;;;3.47;;
7503;SDS011;3793;48.136;11.536;2022-11-15T01:55:50;4.20;;;3.40;;
7503;SDS011;3793;48.136;11.536;2022-11-15T01:58:16;4.43;;;3.37;;
7503;SDS011;3793;48.136;11.536;2022-11-15T02:00:43;4.43;;;3.13;;
7503;SDS011;3793;48.136;11.536;2022-11-15T02:03:10;3.70;;;3.23;;
7503;SDS011;3793;48.136;11.536;2022-11-15T02:05:36;4.03;;;3.20;;
7503;SDS011;3793;48.136;11.536;2022-11-15T02:08:03;4.27;;;3.50;;
7503;SDS011;3793;48.136;11.536;2022-11-15T02:10:30;3.83;;;2.83;;
7503;SDS011;3793;48.136;11.536;2022-11-15T02:12:58;4.00;;;3.50;;
7503;SDS011;3793;48.136;11.536;2022-11-15T02:15:27;5.37;;;3.73;;
7503;SDS011;3793;48.136;11.536;2022-11-15T02:18:00;3.77;;;3.17;;
7503;SDS011;3793;48.136;11.536;2022-11-15T02:20:41;4.70;;;2.87;;
7503;SDS011;3793;48.136;11.536;2022-11-15T02:23:14;4.37;;;3.53;;
7503;SDS011;3793;48.136;11.536;2022-11-15T02:25:51;5.10;;;3.43;;
7503;SDS011;3793;48.136;11.536;2022-11-15T02:28:32;4.07;;;3.00;;
7503;SDS011;3793;48.136;11.536;2022-11-15T02:31:05;4.27;;;3.20;;
7503;SDS011;3793;48.136;11.536;2022-11-15T02:33:38;5.17;;;3.47;;
7503;SDS011;3793;48.136;11.536;2022-11-15T02:36:09;3.40;;;2.97;;
7503;SDS011;3793;48.136;11.536;2022-11-15T02:38:39;4.60;;;3.40;;
7503;SDS011;3793;48.136;11.536;2022-11-15T02:41:07;4.93;;;3.20;;
7503;SDS011;3793;48.136;11.536;2022-11-15T02:43:38;3.60;;;3.17;;
7503;SDS011;3793;48.136;11.536;2022-11-15T02:46:26;7.73;;;3.03;;
7503;SDS011;3793;48.136;11.536;2022-11-15T02:49:08;4.77;;;3.17;;
7503;SDS011;3793;48.136;11.536;2022-11-15T02:51:34;3.97;;;3.10;;
7503;SDS011;3793;48.136;11.536;2022-11-15T02:54:01;6.87;;;3.33;;
7503;SDS011;3793;48.136;11.536;2022-11-15T02:56:28;4.30;;;3.33;;
7503;SDS011;3793;48.136;11.536;2022-11-15T02:58:58;4.17;;;3.43;;
7503;SDS011;3793;48.136;11.536;2022-11-15T03:01:33;3.33;;;2.90;;
7503;SDS011;3793;48.136;11.536;2022-11-15T03:04:02;4.00;;;2.97;;
7503;SDS011;3793;48.136;11.536;2022-11-15T03:06:35;4.47;;;3.23;;
7503;SDS011;3793;48.136;11.536;2022-11-15T03:09:04;3.83;;;2.90;;
7503;SDS011;3793;48.136;11.536;2022-11-15T03:11:32;6.83;;;3.00;;
7503;SDS011;3793;48.136;11.536;2022-11-15T03:14:00;5.13;;;3.00;;
7503;SDS011;3793;48.136;11.536;2022-11-15T03:16:29;3.33;;;3.03;;
7503;SDS011;3793;48.136;11.536;2022-11-15T03:19:04;3.30;;;2.60;;
7503;SDS011;3793;48.136;11.536;2022-11-15T03:21:33;4.50;;;3.07;;
7503;SDS011;3793;48.136;11.536;2022-11-15T03:24:01;3.30;;;2.63;;
7503;SDS011;3793;48.136;11.536;2022-11-15T03:26:29;4.77;;;2.90;;
7503;SDS011;3793;48.136;11.536;2022-11-15T03:28:56;4.20;;;2.90;;
7503;SDS011;3793;48.136;11.536;2022-11-15T03:31:26;3.93;;;2.97;;
7503;SDS011;3793;48.136;11.536;2022-11-15T03:34:10;2.73;;;2.43;;
7503;SDS011;3793;48.136;11.536;2022-11-15T03:36:41;6.10;;;3.10;;
7503;SDS011;3793;48.136;11.536;2022-11-15T03:39:11;3.43;;;2.83;;
7503;SDS011;3793;48.136;11.536;2022-11-15T03:41:39;4.47;;;2.57;;
7503;SDS011;3793;48.136;11.536;2022-11-15T03:44:14;3.70;;;2.60;;
7503;SDS011;3793;48.136;11.536;2022-11-15T03:46:44;3.63;;;2.43;;
7503;SDS011;3793;48.136;11.536;2022-11-15T03:49:15;5.73;;;3.00;;
7503;SDS011;3793;48.136;11.536;2022-11-15T03:51:43;3.70;;;2.80;;
7503;SDS011;3793;48.136;11.536;2022-11-15T03:54:11;3.50;;;2.40;;
7503;SDS011;3793;48.136;11.536;2022-11-15T03:56:38;3.27;;;2.80;;
7503;SDS011;3793;48.136;11.536;2022-11-15T03:59:04;2.97;;;2.67;;
7503;SDS011;3793;48.136;11.536;2022-11-15T04:01:31;3.90;;;2.93;;
7503;SDS011;3793;48.136;11.536;2022-11-15T04:03:58;3.37;;;3.07;;
7503;SDS011;3793;48.136;11.536;2022-11-15T04:06:26;4.30;;;2.80;;
7503;SDS011;3793;48.136;11.536;2022-11-15T04:08:53;3.03;;;2.73;;
7503;SDS011;3793;48.136;11.536;2022-11-15T04:11:27;3.03;;;2.70;;
7503;SDS011;3793;48.136;11.536;2022-11-15T04:13:53;4.27;;;2.80;;
7503;SDS011;3793;48.136;11.536;2022-11-15T04:16:20;3.13;;;2.83;;
7503;SDS011;3793;48.136;11.536;2022-11-15T04:18:47;13.73;;;3.60;;
7503;SDS011;3793;48.136;11.536;2022-11-15T04:21:35;4.03;;;2.77;;
7503;SDS011;3793;48.136;11.536;2022-11-15T04:24:19;3.13;;;2.50;;
7503;SDS011;3793;48.136;11.536;2022-11-15T04:26:46;3.80;;;3.20;;
7503;SDS011;3793;48.136;11.536;2022-11-15T04:29:12;3.17;;;2.67;;
7503;SDS011;3793;48.136;11.536;2022-11-15T04:31:56;4.07;;;2.87;;
7503;SDS011;3793;48.136;11.536;2022-11-15T04:34:26;5.27;;;3.20;;
7503;SDS011;3793;48.136;11.536;2022-11-15T04:36:54;3.63;;;2.80;;
7503;SDS011;3793;48.136;11.536;2022-11-15T04:39:39;4.17;;;2.80;;
7503;SDS011;3793;48.136;11.536;2022-11-15T04:42:11;4.47;;;2.63;;
7503;SDS011;3793;48.136;11.536;2022-11-15T04:44:38;4.00;;;2.93;;
7503;SDS011;3793;48.136;11.536;2022-11-15T04:47:05;4.13;;;2.60;;
7503;SDS011;3793;48.136;11.536;2022-11-15T04:49:31;4.57;;;2.77;;
7503;SDS011;3793;48.136;11.536;2022-11-15T04:52:04;3.53;;;2.70;;
7503;SDS011;3793;48.136;11.536;2022-11-15T04:54:31;4.27;;;2.57;;
7503;SDS011;3793;48.136;11.536;2022-11-15T04:56:57;3.60;;;2.50;;
7503;SDS011;3793;48.136;11.536;2022-11-15T04:59:24;2.97;;;2.17;;
7503;SDS011;3793;48.136;11.536;2022-11-15T05:01:50;4.20;;;2.40;;
7503;SDS011;3793;48.136;11.536;2022-11-15T05:04:17;3.13;;;2.50;;
7503;SDS011;3793;48.136;11.536;2022-11-15T05:06:45;3.40;;;2.50;;
7503;SDS011;3793;48.136;11.536;2022-11-15T05:09:14;2.90;;;2.40;;
7503;SDS011;3793;48.136;11.536;2022-11-15T05:11:40;3.00;;;2.60;;
7503;SDS011;3793;48.136;11.536;2022-11-15T05:14:07;5.07;;;2.90;;
7503;SDS011;3793;48.136;11.536;2022-11-15T05:16:36;4.73;;;3.47;;
7503;SDS011;3793;48.136;11.536;2022-11-15T05:19:04;4.53;;;3.00;;
7503;SDS011;3793;48.136;11.536;2022-11-15T05:21:31;4.43;;;2.90;;
7503;SDS011;3793;48.136;11.536;2022-11-15T05:23:59;3.10;;;2.43;;
7503;SDS011;3793;48.136;11.536;2022-11-15T05:26:30;5.80;;;2.83;;
7503;SDS011;3793;48.136;11.536;2022-11-15T05:28:58;3.50;;;2.67;;
7503;SDS011;3793;48.136;11.536;2022-11-15T05:31:25;3.83;;;2.40;;
7503;SDS011;3793;48.136;11.536;2022-11-15T05:33:51;3.63;;;2.80;;
7503;SDS011;3793;48.136;11.536;2022-11-15T05:36:21;4.77;;;2.70;;
7503;SDS011;3793;48.136;11.536;2022-11-15T05:38:50;7.97;;;3.40;;
7503;SDS011;3793;48.136;11.536;2022-11-15T05:41:20;6.70;;;4.00;;
7503;SDS011;3793;48.136;11.536;2022-11-15T05:43:50;10.70;;;5.40;;
7503;SDS011;3793;48.136;11.536;2022-11-15T05:46:19;10.77;;;4.43;;
7503;SDS011;3793;48.136;11.536;2022-11-15T05:48:46;6.30;;;4.37;;
7503;SDS011;3793;48.136;11.536;2022-11-15T05:51:17;5.80;;;3.83;;
7503;SDS011;3793;48.136;11.536;2022-11-15T05:53:45;5.27;;;3.33;;
7503;SDS011;3793;48.136;11.536;2022-11-15T05:56:12;6.40;;;3.80;;
7503;SDS011;3793;48.136;11.536;2022-11-15T05:58:39;6.87;;;3.83;;
7503;SDS011;3793;48.136;11.536;2022-11-15T06:01:07;7.10;;;3.80;;
7503;SDS011;3793;48.136;11.536;2022-11-15T06:03:34;7.67;;;4.03;;
7503;SDS011;3793;48.136;11.536;2022-11-15T06:06:03;4.53;;;3.07;;
7503;SDS011;3793;48.136;11.536;2022-11-15T06:08:31;6.33;;;3.60;;
7503;SDS011;3793;48.136;11.536;2022-11-15T06:11:02;5.50;;;3.30;;
7503;SDS011;3793;48.136;11.536;2022-11-15T06:13:29;4.77;;;3.73;;
7503;SDS011;3793;48.136;11.536;2022-11-15T06:15:56;5.90;;;3.57;;
7503;SDS011;3793;48.136;11.536;2022-11-15T06:18:24;4.80;;;3.27;;
7503;SDS011;3793;48.136;11.536;2022-11-15T06:20:54;8.33;;;3.67;;
7503;SDS011;3793;48.136;11.536;2022-11-15T06:23:24;5.63;;;3.80;;
7503;SDS011;3793;48.136;11.536;2022-11-15T06:25:53;6.67;;;3.40;;
7503;SDS011;3793;48.136;11.536;2022-11-15T06:28:30;7.57;;;3.17;;
7503;SDS011;3793;48.136;11.536;2022-11-15T06:31:03;6.83;;;3.80;;
7503;SDS011;3793;48.136;11.536;2022-11-15T06:33:31;6.87;;;3.40;;
7503;SDS011;3793;48.136;11.536;2022-11-15T06:36:00;6.53;;;3.10;;
7503;SDS011;3793;48.136;11.536;2022-11-15T06:38:26;5.67;;;3.20;;
7503;SDS011;3793;48.136;11.536;2022-11-15T06:40:53;4.37;;;2.90;;
7503;SDS011;3793;48.136;11.536;2022-11-15T06:43:21;4.10;;;3.03;;
7503;SDS011;3793;48.136;11.536;2022-11-15T06:45:48;6.10;;;3.00;;
7503;SDS011;3793;48.136;11.536;2022-11-15T06:48:15;3.87;;;3.27;;
7503;SDS011;3793;48.136;11.536;2022-11-15T06:50:43;3.63;;;3.00;;
7503;SDS011;3793;48.136;11.536;2022-11-15T06:53:16;5.43;;;3.13;;
7503;SDS011;3793;48.136;11.536;2022-11-15T06:55:42;5.50;;;3.20;;
7503;SDS011;3793;48.136;11.536;2022-11-15T06:58:09;6.63;;;2.87;;
7503;SDS011;3793;48.136;11.536;2022-11-15T07:00:35;5.13;;;2.93;;
7503;SDS011;3793;48.136;11.536;2022-11-15T07:03:02;5.37;;;2.83;;
7503;SDS011;3793;48.136;11.536;2022-11-15T07:05:29;5.47;;;3.10;;
7503;SDS011;3793;48.136;11.536;2022-11-15T07:08:00;5.03;;;3.30;;
7503;SDS011;3793;48.136;11.536;2022-11-15T07:10:27;3.73;;;2.90;;
7503;SDS011;3793;48.136;11.536;2022-11-15T07:12:54;6.83;;;3.47;;
7503;SDS011;3793;48.136;11.536;2022-11-15T07:15:22;5.33;;;2.87;;
7503;SDS011;3793;48.136;11.536;2022-11-15T07:17:48;6.50;;;3.10;;
7503;SDS011;3793;48.136;11.536;2022-11-15T07:20:15;3.83;;;2.73;;
7503;SDS011;3793;48.136;11.536;2022-11-15T07:22:42;3.67;;;3.20;;
7503;SDS011;3793;48.136;11.536;2022-11-15T07:25:11;4.17;;;3.00;;
7503;SDS011;3793;48.136;11.536;2022-11-15T07:27:38;5.53;;;3.90;;
7503;SDS011;3793;48.136;11.536;2022-11-15T07:30:05;9.10;;;3.60;;
7503;SDS011;3793;48.136;11.536;2022-11-15T07:32:32;4.70;;;3.23;;
7503;SDS011;3793;48.136;11.536;2022-11-15T07:34:58;7.90;;;3.43;;
7503;SDS011;3793;48.136;11.536;2022-11-15T07:37:25;8.40;;;3.10;;
7503;SDS011;3793;48.136;11.536;2022-11-15T07:39:52;4.40;;;3.23;;
7503;SDS011;3793;48.136;11.536;2022-11-15T07:42:20;8.37;;;3.73;;
7503;SDS011;3793;48.136;11.536;2022-11-15T07:45:05;5.03;;;3.40;;
7503;SDS011;3793;48.136;11.536;2022-11-15T07:47:32;5.83;;;3.27;;
7503;SDS011;3793;48.136;11.536;2022-11-15T07:49:58;3.97;;;3.13;;
7503;SDS011;3793;48.136;11.536;2022-11-15T07:52:25;4.80;;;2.77;;
7503;SDS011;3793;48.136;11.536;2022-11-15T07:54:51;5.73;;;3.67;;
7503;SDS011;3793;48.136;11.536;2022-11-15T07:57:18;5.63;;;4.00;;
7503;SDS011;3793;48.136;11.536;2022-11-15T07:59:46;8.33;;;4.20;;
7503;SDS011;3793;48.136;11.536;2022-11-15T08:02:12;11.73;;;3.60;;
7503;SDS011;3793;48.136;11.536;2022-11-15T08:04:41;9.37;;;3.87;;
7503;SDS011;3793;48.136;11.536;2022-11-15T08:07:08;6.70;;;3.77;;
7503;SDS011;3793;48.136;11.536;2022-11-15T08:09:35;7.43;;;3.40;;
7503;SDS011;3793;48.136;11.536;2022-11-15T08:12:02;9.17;;;3.67;;
7503;SDS011;3793;48.136;11.536;2022-11-15T08:14:29;8.97;;;3.60;;
7503;SDS011;3793;48.136;11.536;2022-11-15T08:16:57;10.33;;;4.27;;
7503;SDS011;3793;48.136;11.536;2022-11-15T08:19:24;9.77;;;4.30;;
7503;SDS011;3793;48.136;11.536;2022-11-15T08:21:53;8.43;;;3.87;;
7503;SDS011;3793;48.136;11.536;2022-11-15T08:24:20;9.37;;;4.00;;
7503;SDS011;3793;48.136;11.536;2022-11-15T08:26:47;8.43;;;4.43;;
7503;SDS011;3793;48.136;11.536;2022-11-15T08:29:14;8.50;;;3.50;;
7503;SDS011;3793;48.136;11.536;2022-11-15T08:31:41;6.47;;;3.30;;
7503;SDS011;3793;48.136;11.536;2022-11-15T08:34:09;7.37;;;3.40;;
7503;SDS011;3793;48.136;11.536;2022-11-15T08:36:36;5.87;;;3.50;;
7503;SDS011;3793;48.136;11.536;2022-11-15T08:39:03;5.37;;;3.13;;
7503;SDS011;3793;48.136;11.536;2022-11-15T08:41:30;8.73;;;3.70;;
7503;SDS011;3793;48.136;11.536;2022-11-15T08:43:57;7.00;;;3.37;;
7503;SDS011;3793;48.136;11.536;2022-11-15T08:46:24;5.70;;;3.30;;
7503;SDS011;3793;48.136;11.536;2022-11-15T08:48:51;9.83;;;3.93;;
7503;SDS011;3793;48.136;11.536;2022-11-15T08:51:19;6.67;;;3.47;;
7503;SDS011;3793;48.136;11.536;2022-11-15T08:53:45;4.90;;;3.30;;
7503;SDS011;3793;48.136;11.536;2022-11-15T08:56:13;9.17;;;3.30;;
7503;SDS011;3793;48.136;11.536;2022-11-15T08:58:40;6.63;;;3.43;;
7503;SDS011;3793;48.136;11.536;2022-11-15T09:01:13;5.57;;;3.33;;
7503;SDS011;3793;48.136;11.536;2022-11-15T09:03:40;5.40;;;2.80;;
7503;SDS011;3793;48.136;11.536;2022-11-15T09:06:07;7.40;;;2.70;;
7503;SDS011;3793;48.136;11.536;2022-11-15T09:08:35;4.97;;;3.10;;
7503;SDS011;3793;48.136;11.536;2022-11-15T09:11:02;5.77;;;3.07;;
7503;SDS011;3793;48.136;11.536;2022-11-15T09:13:31;4.50;;;2.83;;
7503;SDS011;3793;48.136;11.536;2022-11-15T09:15:58;6.20;;;2.80;;
7503;SDS011;3793;48.136;11.536;2022-11-15T09:18:25;6.90;;;2.90;;
7503;SDS011;3793;48.136;11.536;2022-11-15T09:20:54;7.53;;;3.37;;
7503;SDS011;3793;48.136;11.536;2022-11-15T09:23:21;6.00;;;3.10;;
7503;SDS011;3793;48.136;11.536;2022-11-15T09:25:49;3.67;;;2.60;;
7503;SDS011;3793;48.136;11.536;2022-11-15T09:28:16;4.47;;;2.70;;
7503;SDS011;3793;48.136;11.536;2022-11-15T09:30:42;3.93;;;2.40;;
7503;SDS011;3793;48.136;11.536;2022-11-15T09:33:09;3.03;;;2.50;;
7503;SDS011;3793;48.136;11.536;2022-11-15T09:35:36;5.43;;;3.37;;
7503;SDS011;3793;48.136;11.536;2022-11-15T09:38:03;6.20;;;3.20;;
7503;SDS011;3793;48.136;11.536;2022-11-15T09:40:30;4.67;;;2.73;;
7503;SDS011;3793;48.136;11.536;2022-11-15T09:43:04;9.70;;;3.40;;
7503;SDS011;3793;48.136;11.536;2022-11-15T09:45:34;5.57;;;3.23;;
7503;SDS011;3793;48.136;11.536;2022-11-15T09:48:07;6.33;;;3.40;;
7503;SDS011;3793;48.136;11.536;2022-11-15T09:50:38;4.40;;;3.50;;
7503;SDS011;3793;48.136;11.536;2022-11-15T09:53:08;7.50;;;3.70;;
7503;SDS011;3793;48.136;11.536;2022-11-15T09:55:38;5.60;;;3.70;;
7503;SDS011;3793;48.136;11.536;2022-11-15T09:58:10;6.60;;;3.60;;
7503;SDS011;3793;48.136;11.536;2022-11-15T10:00:42;5.83;;;2.97;;
7503;SDS011;3793;48.136;11.536;2022-11-15T10:03:12;7.37;;;3.43;;
7503;SDS011;3793;48.136;11.536;2022-11-15T10:05:40;8.50;;;3.27;;
7503;SDS011;3793;48.136;11.536;2022-11-15T10:08:11;4.50;;;3.00;;
7503;SDS011;3793;48.136;11.536;2022-11-15T10:10:42;7.30;;;3.60;;
7503;SDS011;3793;48.136;11.536;2022-11-15T10:13:15;4.33;;;3.00;;
7503;SDS011;3793;48.136;11.536;2022-11-15T10:15:43;4.37;;;3.20;;
7503;SDS011;3793;48.136;11.536;2022-11-15T10:18:18;5.10;;;3.20;;
7503;SDS011;3793;48.136;11.536;2022-11-15T10:20:52;4.93;;;2.87;;
7503;SDS011;3793;48.136;11.536;2022-11-15T10:23:22;4.07;;;2.87;;
7503;SDS011;3793;48.136;11.536;2022-11-15T10:25:52;4.47;;;2.90;;
7503;SDS011;3793;48.136;11.536;2022-11-15T10:28:27;6.47;;;2.80;;
7503;SDS011;3793;48.136;11.536;2022-11-15T10:30:56;4.97;;;2.60;;
7503;SDS011;3793;48.136;11.536;2022-11-15T10:33:27;6.23;;;3.37;;
7503;SDS011;3793;48.136;11.536;2022-11-15T10:38:56;4.50;;;3.20;;
7503;SDS011;3793;48.136;11.536;2022-11-15T10:41:29;3.67;;;2.70;;
7503;SDS011;3793;48.136;11.536;2022-11-15T10:47:04;4.67;;;2.50;;
7503;SDS011;3793;48.136;11.536;2022-11-15T10:49:32;4.33;;;2.50;;
7503;SDS011;3793;48.136;11.536;2022-11-15T10:51:59;5.63;;;3.07;;
7503;SDS011;3793;48.136;11.536;2022-11-15T10:54:28;5.73;;;2.30;;
7503;SDS011;3793;48.136;11.536;2022-11-15T10:56:55;2.30;;;2.03;;
7503;SDS011;3793;48.136;11.536;2022-11-15T10:59:24;3.20;;;2.10;;
7503;SDS011;3793;48.136;11.536;2022-11-15T11:01:53;3.17;;;2.03;;
7503;SDS011;3793;48.136;11.536;2022-11-15T11:04:20;4.70;;;1.80;;
7503;SDS011;3793;48.136;11.536;2022-11-15T11:06:47;4.07;;;2.10;;
7503;SDS011;3793;48.136;11.536;2022-11-15T11:09:22;2.30;;;2.00;;
7503;SDS011;3793;48.136;11.536;2022-11-15T11:11:51;2.60;;;1.90;;
7503;SDS011;3793;48.136;11.536;2022-11-15T11:14:19;4.23;;;2.10;;
7503;SDS011;3793;48.136;11.536;2022-11-15T11:16:48;4.63;;;1.70;;
7503;SDS011;3793;48.136;11.536;2022-11-15T11:19:22;2.23;;;2.03;;
7503;SDS011;3793;48.136;11.536;2022-11-15T11:21:59;3.93;;;1.80;;
7503;SDS011;3793;48.136;11.536;2022-11-15T11:24:29;5.17;;;2.00;;
7503;SDS011;3793;48.136;11.536;2022-11-15T11:27:08;6.37;;;2.20;;
7503;SDS011;3793;48.136;11.536;2022-11-15T11:29:43;1.87;;;1.50;;
7503;SDS011;3793;48.136;11.536;2022-11-15T11:32:19;2.20;;;2.00;;
7503;SDS011;3793;48.136;11.536;2022-11-15T11:34:54;2.67;;;1.80;;
7503;SDS011;3793;48.136;11.536;2022-11-15T11:37:24;2.30;;;1.50;;
7503;SDS011;3793;48.136;11.536;2022-11-15T11:39:59;3.00;;;2.00;;
7503;SDS011;3793;48.136;11.536;2022-11-15T11:42:29;1.77;;;1.67;;
7503;SDS011;3793;48.136;11.536;2022-11-15T11:45:00;2.20;;;1.47;;
7503;SDS011;3793;48.136;11.536;2022-11-15T11:47:30;5.83;;;2.10;;
7503;SDS011;3793;48.136;11.536;2022-11-15T11:50:00;2.80;;;2.00;;
7503;SDS011;3793;48.136;11.536;2022-11-15T11:52:30;4.43;;;2.07;;
7503;SDS011;3793;48.136;11.536;2022-11-15T11:54:59;3.77;;;2.07;;
7503;SDS011;3793;48.136;11.536;2022-11-15T11:57:29;2.97;;;2.00;;
7503;SDS011;3793;48.136;11.536;2022-11-15T12:00:00;3.57;;;2.60;;
7503;SDS011;3793;48.136;11.536;2022-11-15T12:02:29;2.00;;;1.73;;
7503;SDS011;3793;48.136;11.536;2022-11-15T12:04:57;2.20;;;2.00;;
7503;SDS011;3793;48.136;11.536;2022-11-15T12:07:29;3.30;;;2.23;;
7503;SDS011;3793;48.136;11.536;2022-11-15T12:09:58;2.10;;;1.90;;
7503;SDS011;3793;48.136;11.536;2022-11-15T12:12:27;2.63;;;1.63;;
7503;SDS011;3793;48.136;11.536;2022-11-15T12:14:56;3.77;;;1.97;;
7503;SDS011;3793;48.136;11.536;2022-11-15T12:17:24;3.80;;;2.00;;
7503;SDS011;3793;48.136;11.536;2022-11-15T12:19:51;3.53;;;2.20;;
7503;SDS011;3793;48.136;11.536;2022-11-15T12:22:19;4.27;;;1.97;;
7503;SDS011;3793;48.136;11.536;2022-11-15T12:24:54;4.00;;;2.13;;
7503;SDS011;3793;48.136;11.536;2022-11-15T12:27:27;2.03;;;1.47;;
7503;SDS011;3793;48.136;11.536;2022-11-15T12:29:59;2.13;;;1.93;;
7503;SDS011;3793;48.136;11.536;2022-11-15T12:32:34;2.43;;;2.17;;
7503;SDS011;3793;48.136;11.536;2022-11-15T12:35:03;4.17;;;2.23;;
7503;SDS011;3793;48.136;11.536;2022-11-15T12:40:25;2.10;;;1.70;;
7503;SDS011;3793;48.136;11.536;2022-11-15T12:42:59;3.43;;;1.73;;
7503;SDS011;3793;48.136;11.536;2022-11-15T12:45:30;4.83;;;1.73;;
7503;SDS011;3793;48.136;11.536;2022-11-15T12:50:52;1.40;;;1.30;;
7503;SDS011;3793;48.136;11.536;2022-11-15T12:53:26;1.70;;;1.60;;
7503;SDS011;3793;48.136;11.536;2022-11-15T12:58:43;2.33;;;1.80;;
7503;SDS011;3793;48.136;11.536;2022-11-15T13:01:15;2.03;;;1.57;;
7503;SDS011;3793;48.136;11.536;2022-11-15T13:04:21;1.70;;;1.60;;
7503;SDS011;3793;48.136;11.536;2022-11-15T13:06:49;4.33;;;1.63;;
7503;SDS011;3793;48.136;11.536;2022-11-15T13:12:47;1.37;;;1.27;;
7503;SDS011;3793;48.136;11.536;2022-11-15T13:17:49;2.33;;;2.00;;
7503;SDS011;3793;48.136;11.536;2022-11-15T13:20:20;4.50;;;1.87;;
7503;SDS011;3793;48.136;11.536;2022-11-15T13:22:48;4.33;;;2.07;;
7503;SDS011;3793;48.136;11.536;2022-11-15T13:25:25;2.83;;;1.90;;
7503;SDS011;3793;48.136;11.536;2022-11-15T13:27:53;4.53;;;2.83;;
7503;SDS011;3793;48.136;11.536;2022-11-15T13:30:22;3.27;;;2.10;;
7503;SDS011;3793;48.136;11.536;2022-11-15T13:32:51;4.13;;;2.10;;
7503;SDS011;3793;48.136;11.536;2022-11-15T13:35:19;4.63;;;2.27;;
7503;SDS011;3793;48.136;11.536;2022-11-15T13:37:46;3.00;;;2.10;;
7503;SDS011;3793;48.136;11.536;2022-11-15T13:40:18;3.70;;;2.20;;
7503;SDS011;3793;48.136;11.536;2022-11-15T13:42:46;2.73;;;1.93;;
7503;SDS011;3793;48.136;11.536;2022-11-15T13:45:13;2.77;;;1.80;;
7503;SDS011;3793;48.136;11.536;2022-11-15T13:47:40;3.43;;;1.90;;
7503;SDS011;3793;48.136;11.536;2022-11-15T13:50:11;4.47;;;2.10;;
7503;SDS011;3793;48.136;11.536;2022-11-15T13:52:38;2.03;;;1.73;;
7503;SDS011;3793;48.136;11.536;2022-11-15T13:55:09;2.23;;;1.83;;
7503;SDS011;3793;48.136;11.536;2022-11-15T13:57:37;3.93;;;1.90;;
7503;SDS011;3793;48.136;11.536;2022-11-15T14:00:06;3.87;;;1.90;;
7503;SDS011;3793;48.136;11.536;2022-11-15T14:02:49;3.03;;;2.03;;
7503;SDS011;3793;48.136;11.536;2022-11-15T14:05:18;2.47;;;2.07;;
7503;SDS011;3793;48.136;11.536;2022-11-15T14:07:52;2.40;;;1.90;;
7503;SDS011;3793;48.136;11.536;2022-11-15T14:10:24;5.23;;;2.30;;
7503;SDS011;3793;48.136;11.536;2022-11-15T14:12:51;3.23;;;1.87;;
7503;SDS011;3793;48.136;11.536;2022-11-15T14:15:23;3.63;;;1.77;;
7503;SDS011;3793;48.136;11.536;2022-11-15T14:17:51;2.33;;;1.80;;
7503;SDS011;3793;48.136;11.536;2022-11-15T14:23:05;4.53;;;1.90;;
7503;SDS011;3793;48.136;11.536;2022-11-15T14:25:32;3.20;;;2.03;;
7503;SDS011;3793;48.136;11.536;2022-11-15T14:28:11;2.67;;;1.83;;
7503;SDS011;3793;48.136;11.536;2022-11-15T14:30:38;3.23;;;1.97;;
7503;SDS011;3793;48.136;11.536;2022-11-15T14:33:15;2.87;;;2.23;;
7503;SDS011;3793;48.136;11.536;2022-11-15T14:35:43;3.03;;;2.00;;
7503;SDS011;3793;48.136;11.536;2022-11-15T14:38:16;3.73;;;2.07;;
7503;SDS011;3793;48.136;11.536;2022-11-15T14:40:43;4.17;;;2.37;;
7503;SDS011;3793;48.136;11.536;2022-11-15T14:43:10;2.60;;;1.90;;
7503;SDS011;3793;48.136;11.536;2022-11-15T14:45:37;2.97;;;2.40;;
7503;SDS011;3793;48.136;11.536;2022-11-15T14:48:04;6.93;;;3.80;;
7503;SDS011;3793;48.136;11.536;2022-11-15T14:50:32;6.20;;;3.10;;
7503;SDS011;3793;48.136;11.536;2022-11-15T14:53:05;2.77;;;2.20;;
7503;SDS011;3793;48.136;11.536;2022-11-15T14:55:33;4.53;;;2.40;;
7503;SDS011;3793;48.136;11.536;2022-11-15T14:58:04;3.23;;;2.20;;
7503;SDS011;3793;48.136;11.536;2022-11-15T15:00:33;3.93;;;2.33;;
7503;SDS011;3793;48.136;11.536;2022-11-15T15:03:02;3.43;;;2.77;;
7503;SDS011;3793;48.136;11.536;2022-11-15T15:05:30;3.87;;;2.93;;
7503;SDS011;3793;48.136;11.536;2022-11-15T15:07:58;5.23;;;3.40;;
7503;SDS011;3793;48.136;11.536;2022-11-15T15:10:25;5.10;;;3.30;;
7503;SDS011;3793;48.136;11.536;2022-11-15T15:12:56;4.83;;;3.37;;
7503;SDS011;3793;48.136;11.536;2022-11-15T15:15:24;4.97;;;4.00;;
7503;SDS011;3793;48.136;11.536;2022-11-15T15:17:54;6.77;;;3.77;;
7503;SDS011;3793;48.136;11.536;2022-11-15T15:20:22;6.50;;;4.07;;
7503;SDS011;3793;48.136;11.536;2022-11-15T15:22:50;5.33;;;3.90;;
7503;SDS011;3793;48.136;11.536;2022-11-15T15:25:20;4.90;;;4.23;;
7503;SDS011;3793;48.136;11.536;2022-11-15T15:27:47;5.87;;;4.03;;
7503;SDS011;3793;48.136;11.536;2022-11-15T15:30:28;5.83;;;4.13;;
7503;SDS011;3793;48.136;11.536;2022-11-15T15:32:56;5.63;;;4.80;;
7503;SDS011;3793;48.136;11.536;2022-11-15T15:35:26;6.23;;;4.40;;